Time;durP1;ratioP1;P1;durP2;ratioP2;P2;SDS_P1;SDS_P2;PMS_P1;PMS_P2;Temp;Humidity;BMP_temperature;BMP_pressure;BME280_temperature;BME280_humidity;BME280_pressure;Samples;Min_cycle;Max_cycle;Signal;HPM_P1;HPM_P2
2023/10/15 00:02:06;;;;;;;0.73;0.40;;;6.50;99.90;;;;;;5021294;28;20053;-62
2023/10/15 00:04:33;;;;;;;3.20;0.30;;;6.50;99.90;;;;;;5023995;28;20025;-61
2023/10/15 00:06:59;;;;;;;1.08;0.28;;;6.50;99.90;;;;;;5021964;28;20653;-60
2023/10/15 00:09:25;;;;;;;4.68;0.60;;;6.50;99.90;;;;;;5004757;28;20113;-60
2023/10/15 00:11:51;;;;;;;2.65;0.80;;;6.50;99.90;;;;;;5024898;28;20045;-60
2023/10/15 00:14:16;;;;;;;1.08;0.60;;;6.50;99.90;;;;;;5022881;28;20474;-63
2023/10/15 00:16:42;;;;;;;2.85;0.52;;;6.50;99.90;;;;;;5024056;28;20052;-58
2023/10/15 00:19:10;;;;;;;2.15;0.88;;;6.50;99.90;;;;;;5024352;28;20060;-61
2023/10/15 00:21:38;;;;;;;1.95;0.60;;;6.50;99.90;;;;;;5025686;28;20064;-59
2023/10/15 00:24:06;;;;;;;2.10;0.43;;;6.50;99.90;;;;;;5024075;28;20552;-60
2023/10/15 00:26:32;;;;;;;1.17;0.65;;;6.50;99.90;;;;;;5025367;28;20029;-59
2023/10/15 00:28:57;;;;;;;1.17;0.50;;;6.50;99.90;;;;;;5025338;28;20021;-60
2023/10/15 00:31:24;;;;;;;3.08;0.57;;;6.50;99.90;;;;;;5022139;28;20014;-58
2023/10/15 00:33:50;;;;;;;1.13;0.63;;;6.50;99.90;;;;;;5022131;28;20030;-59
2023/10/15 00:36:16;;;;;;;3.22;0.70;;;6.50;99.90;;;;;;5024022;28;20025;-56
2023/10/15 00:38:45;;;;;;;1.10;0.30;;;6.50;99.90;;;;;;5027195;28;20083;-60
2023/10/15 00:41:13;;;;;;;1.13;0.57;;;6.50;99.90;;;;;;5022194;28;20056;-56
2023/10/15 00:43:55;;;;;;;2.63;0.85;;;6.50;99.90;;;;;;5024172;28;20029;-54
2023/10/15 00:46:26;;;;;;;2.03;0.75;;;6.50;99.90;;;;;;5021849;28;20029;-55
2023/10/15 00:49:09;;;;;;;2.65;0.63;;;6.50;99.90;;;;;;5021587;28;20029;-58
2023/10/15 00:51:40;;;;;;;1.45;0.60;;;6.50;99.90;;;;;;5020687;28;20022;-56
2023/10/15 00:54:11;;;;;;;2.28;0.50;;;6.50;99.90;;;;;;5022453;28;20104;-58
2023/10/15 00:56:38;;;;;;;1.23;0.60;;;6.50;99.90;;;;;;5006367;28;20021;-58
2023/10/15 00:59:17;;;;;;;2.97;0.88;;;6.50;99.90;;;;;;5023632;28;20025;-58
2023/10/15 01:01:53;;;;;;;1.30;0.70;;;6.50;99.90;;;;;;5022902;28;20393;-59
2023/10/15 01:04:24;;;;;;;3.03;0.50;;;6.60;99.90;;;;;;5008000;28;20458;-57
2023/10/15 01:06:50;;;;;;;1.13;0.30;;;6.50;99.90;;;;;;5027619;28;20061;-59
2023/10/15 01:09:20;;;;;;;4.10;0.73;;;6.40;99.90;;;;;;5027579;28;20049;-57
2023/10/15 01:11:55;;;;;;;4.28;0.60;;;6.40;99.90;;;;;;5028809;28;20014;-57
2023/10/15 01:14:38;;;;;;;2.75;0.70;;;6.40;99.90;;;;;;5026789;28;20021;-57
2023/10/15 01:17:04;;;;;;;5.55;0.60;;;6.40;99.90;;;;;;5008400;28;20681;-58
2023/10/15 01:19:34;;;;;;;3.45;0.43;;;6.30;99.90;;;;;;5009604;28;20112;-56
2023/10/15 01:22:02;;;;;;;0.90;0.55;;;6.30;99.90;;;;;;5028461;28;20147;-58
2023/10/15 01:24:28;;;;;;;1.02;0.55;;;6.30;99.90;;;;;;5027641;28;20489;-58
2023/10/15 01:29:33;;;;;;;3.33;0.40;;;6.30;99.90;;;;;;5026468;28;20032;-57
2023/10/15 01:32:03;;;;;;;1.60;0.52;;;6.30;99.90;;;;;;5024904;28;20036;-59
2023/10/15 01:34:37;;;;;;;0.50;0.45;;;6.30;99.90;;;;;;5028103;28;20026;-59
2023/10/15 01:37:10;;;;;;;2.17;0.40;;;6.30;99.90;;;;;;5025114;28;20055;-58
2023/10/15 01:39:39;;;;;;;1.23;0.52;;;6.30;99.90;;;;;;5009235;28;20083;-58
2023/10/15 01:42:06;;;;;;;1.55;0.60;;;6.30;99.90;;;;;;5027592;28;20758;-57
2023/10/15 01:44:47;;;;;;;2.17;0.63;;;6.30;99.90;;;;;;5027070;28;20120;-58
2023/10/15 01:47:13;;;;;;;1.35;0.50;;;6.30;99.90;;;;;;5025483;28;20033;-59
2023/10/15 01:49:39;;;;;;;3.60;0.75;;;6.30;99.90;;;;;;5027382;28;20036;-57
2023/10/15 01:52:09;;;;;;;4.72;0.75;;;6.30;99.90;;;;;;5028155;28;20100;-56
2023/10/15 01:54:41;;;;;;;0.80;0.60;;;6.40;99.90;;;;;;5027151;28;20014;-59
2023/10/15 01:57:07;;;;;;;0.80;0.30;;;6.40;99.90;;;;;;5027708;28;20120;-58
2023/10/15 01:59:43;;;;;;;0.68;0.50;;;6.30;99.90;;;;;;5010363;28;20112;-59
2023/10/15 02:02:13;;;;;;;4.43;0.98;;;6.30;99.90;;;;;;5027743;28;20482;-59
2023/10/15 02:04:44;;;;;;;3.92;0.93;;;6.30;99.90;;;;;;5027162;28;20649;-60
2023/10/15 02:07:13;;;;;;;2.60;0.52;;;6.30;99.90;;;;;;5027865;28;20105;-57
2023/10/15 02:09:39;;;;;;;4.15;1.00;;;6.30;99.90;;;;;;5027509;28;20071;-59
2023/10/15 02:12:07;;;;;;;1.30;0.70;;;6.30;99.90;;;;;;5024846;28;20441;-60
2023/10/15 02:14:33;;;;;;;1.63;0.85;;;6.30;99.90;;;;;;5009167;28;20041;-58
2023/10/15 02:16:59;;;;;;;1.83;0.50;;;6.30;99.90;;;;;;5027307;28;20022;-59
2023/10/15 02:22:00;;;;;;;0.88;0.50;;;6.40;99.90;;;;;;5025285;28;20029;-60
2023/10/15 02:24:31;;;;;;;3.42;0.73;;;6.40;99.90;;;;;;5026672;28;20049;-58
2023/10/15 02:26:58;;;;;;;1.45;0.63;;;6.40;99.90;;;;;;5026040;28;20013;-59
2023/10/15 02:29:34;;;;;;;1.52;0.65;;;6.40;99.90;;;;;;5026247;28;20013;-60
2023/10/15 02:32:20;;;;;;;2.10;0.68;;;6.40;99.90;;;;;;5025775;28;20053;-60
2023/10/15 02:34:50;;;;;;;2.38;0.60;;;6.40;99.90;;;;;;5008981;28;20026;-59
2023/10/15 02:37:18;;;;;;;3.88;0.50;;;6.40;99.90;;;;;;5025074;28;20025;-60
2023/10/15 02:39:49;;;;;;;0.90;0.65;;;6.40;99.90;;;;;;5026129;28;20025;-58
2023/10/15 02:42:19;;;;;;;2.10;0.50;;;6.40;99.90;;;;;;5007566;28;20204;-57
2023/10/15 02:44:50;;;;;;;2.20;0.55;;;6.40;99.90;;;;;;5027380;28;20025;-58
2023/10/15 02:50:03;;;;;;;5.68;0.82;;;6.30;99.90;;;;;;5027054;28;20028;-60
2023/10/15 02:52:54;;;;;;;1.38;0.77;;;6.30;99.90;;;;;;5025770;28;20022;-59
2023/10/15 02:55:26;;;;;;;2.47;0.60;;;6.30;99.90;;;;;;5025812;28;20092;-59
2023/10/15 02:57:52;;;;;;;3.30;0.70;;;6.30;99.90;;;;;;5026391;28;20037;-59
2023/10/15 03:00:28;;;;;;;3.30;0.70;;;6.30;99.90;;;;;;5026497;28;20040;-59
2023/10/15 03:02:58;;;;;;;2.00;0.68;;;6.30;99.90;;;;;;5026701;28;20026;-59
2023/10/15 03:05:38;;;;;;;2.22;0.35;;;6.30;99.90;;;;;;5024521;28;20037;-60
2023/10/15 03:08:04;;;;;;;2.47;0.25;;;6.30;99.90;;;;;;5026365;28;20104;-60
2023/10/15 03:10:44;;;;;;;2.17;0.50;;;6.20;99.90;;;;;;5026467;28;20383;-60
2023/10/15 03:13:14;;;;;;;4.60;0.50;;;6.20;99.90;;;;;;5026107;28;20100;-60
2023/10/15 03:15:48;;;;;;;2.08;0.70;;;6.20;99.90;;;;;;5008044;28;20506;-61
2023/10/15 03:18:20;;;;;;;2.75;1.02;;;6.20;99.90;;;;;;5009301;28;20025;-60
2023/10/15 03:20:49;;;;;;;1.50;0.68;;;6.10;99.90;;;;;;5025885;28;20527;-60
2023/10/15 03:23:17;;;;;;;5.68;1.00;;;6.20;99.90;;;;;;5026525;28;20551;-60
2023/10/15 03:25:43;;;;;;;2.05;0.40;;;6.10;99.90;;;;;;5024835;28;20088;-60
2023/10/15 03:28:11;;;;;;;3.13;0.47;;;6.20;99.90;;;;;;5025910;28;20029;-60
2023/10/15 03:30:44;;;;;;;2.92;0.50;;;6.20;99.90;;;;;;5025980;28;20045;-59
2023/10/15 03:33:13;;;;;;;0.45;0.30;;;6.20;99.90;;;;;;5007851;28;20109;-58
2023/10/15 03:35:39;;;;;;;2.22;0.55;;;6.20;99.90;;;;;;5025058;28;20047;-58
2023/10/15 03:38:09;;;;;;;1.48;0.57;;;6.20;99.90;;;;;;5006869;28;20027;-57
2023/10/15 03:40:46;;;;;;;4.60;0.35;;;6.20;99.90;;;;;;5007448;28;20022;-57
2023/10/15 03:43:20;;;;;;;1.73;0.82;;;6.20;99.90;;;;;;5025742;28;20413;-58
2023/10/15 03:45:53;;;;;;;1.48;0.73;;;6.10;99.90;;;;;;5026047;28;20024;-55
2023/10/15 03:48:27;;;;;;;2.20;0.63;;;6.10;99.90;;;;;;5007776;28;20026;-59
2023/10/15 03:50:53;;;;;;;2.30;0.65;;;6.10;99.90;;;;;;5007943;28;20292;-58
2023/10/15 03:53:32;;;;;;;3.53;0.68;;;6.10;99.90;;;;;;5026029;28;20053;-56
2023/10/15 03:55:58;;;;;;;1.55;0.40;;;6.10;99.90;;;;;;5025562;28;20105;-59
2023/10/15 03:58:27;;;;;;;0.90;0.52;;;6.10;99.90;;;;;;5025735;28;20029;-58
2023/10/15 04:03:35;;;;;;;0.57;0.45;;;6.10;99.90;;;;;;5025516;28;20014;-59
2023/10/15 04:06:05;;;;;;;2.13;0.73;;;6.10;99.90;;;;;;5007470;28;20033;-59
2023/10/15 04:08:31;;;;;;;2.00;0.80;;;6.10;99.90;;;;;;5023712;28;20017;-60
2023/10/15 04:11:00;;;;;;;2.70;0.90;;;6.10;99.90;;;;;;5025144;28;20505;-60
2023/10/15 04:13:26;;;;;;;1.27;0.57;;;6.10;99.90;;;;;;5025111;28;20508;-58
2023/10/15 04:15:56;;;;;;;3.13;0.70;;;6.10;99.90;;;;;;5025372;28;20033;-60
2023/10/15 04:18:23;;;;;;;0.98;0.80;;;6.10;99.90;;;;;;5023976;28;20032;-60
2023/10/15 04:20:52;;;;;;;0.90;0.55;;;6.10;99.90;;;;;;5025191;28;20033;-60
2023/10/15 04:23:30;;;;;;;1.50;0.82;;;6.10;99.90;;;;;;5023080;28;20049;-58
2023/10/15 04:26:12;;;;;;;2.08;0.57;;;6.00;99.90;;;;;;5025046;28;20026;-60
2023/10/15 04:28:40;;;;;;;1.60;0.55;;;6.00;99.90;;;;;;5025511;28;20062;-60
2023/10/15 04:31:11;;;;;;;1.55;0.65;;;6.00;99.90;;;;;;5025312;28;20022;-60
2023/10/15 04:33:41;;;;;;;0.60;0.52;;;6.00;99.90;;;;;;5008008;28;20118;-61
2023/10/15 04:36:09;;;;;;;2.17;0.63;;;6.00;99.90;;;;;;5023423;28;20171;-60
2023/10/15 04:38:36;;;;;;;3.42;0.60;;;6.00;99.90;;;;;;5025653;28;20108;-63
2023/10/15 04:41:03;;;;;;;0.80;0.38;;;6.00;99.90;;;;;;5024374;28;20031;-61
2023/10/15 04:43:29;;;;;;;3.55;0.90;;;6.00;99.90;;;;;;5008005;28;20163;-60
2023/10/15 04:45:56;;;;;;;1.90;0.57;;;6.00;99.90;;;;;;5024944;28;20452;-59
2023/10/15 04:48:36;;;;;;;0.57;0.45;;;6.00;99.90;;;;;;5007808;28;20029;-61
2023/10/15 04:51:12;;;;;;;2.30;0.73;;;6.00;99.90;;;;;;5024839;28;20025;-60
2023/10/15 04:53:39;;;;;;;2.83;0.77;;;6.00;99.90;;;;;;5025220;28;20013;-61
2023/10/15 04:56:04;;;;;;;1.42;0.65;;;5.90;99.90;;;;;;5024899;28;20519;-60
2023/10/15 04:58:30;;;;;;;3.60;0.95;;;5.80;99.90;;;;;;5025107;28;20017;-60
2023/10/15 05:00:58;;;;;;;3.08;1.50;;;5.80;99.90;;;;;;5024741;28;20028;-60
2023/10/15 05:03:24;;;;;;;2.13;0.88;;;5.80;99.90;;;;;;5025375;28;20021;-59
2023/10/15 05:05:51;;;;;;;1.98;0.50;;;5.80;99.90;;;;;;5025233;28;20025;-58
2023/10/15 05:08:17;;;;;;;1.98;0.52;;;5.80;99.90;;;;;;5006978;28;20072;-59
2023/10/15 05:10:55;;;;;;;1.38;0.55;;;5.80;99.90;;;;;;5025303;28;20064;-57
2023/10/15 05:13:21;;;;;;;3.33;0.80;;;5.80;99.90;;;;;;5004337;28;20501;-57
2023/10/15 05:15:47;;;;;;;0.55;0.50;;;5.80;99.90;;;;;;5005013;28;20018;-57
2023/10/15 05:18:15;;;;;;;4.20;0.55;;;5.80;99.90;;;;;;5022694;28;20014;-59
2023/10/15 05:20:43;;;;;;;2.60;0.50;;;5.90;99.90;;;;;;5021132;28;20043;-56
2023/10/15 05:23:09;;;;;;;2.03;0.55;;;5.90;99.90;;;;;;5021695;28;20083;-58
2023/10/15 05:25:35;;;;;;;1.77;0.30;;;5.90;99.90;;;;;;5022689;28;20021;-59
2023/10/15 05:28:00;;;;;;;1.75;0.40;;;5.90;99.90;;;;;;5024254;28;20057;-56
2023/10/15 05:30:29;;;;;;;6.10;0.60;;;5.80;99.90;;;;;;5020928;28;20089;-59
2023/10/15 05:32:54;;;;;;;1.70;0.50;;;5.80;99.90;;;;;;5025224;28;20159;-59
2023/10/15 05:35:20;;;;;;;1.80;0.30;;;5.80;99.90;;;;;;5021285;28;20313;-55
2023/10/15 05:37:45;;;;;;;0.30;0.25;;;5.80;99.90;;;;;;5021689;28;20022;-58
2023/10/15 05:40:12;;;;;;;1.25;0.55;;;5.80;99.90;;;;;;5018280;28;20095;-61
2023/10/15 05:42:38;;;;;;;1.00;0.77;;;5.80;99.90;;;;;;5020691;28;20036;-61
2023/10/15 05:45:07;;;;;;;3.67;0.45;;;5.80;99.90;;;;;;5023811;28;20557;-60
2023/10/15 05:47:35;;;;;;;1.35;0.40;;;5.80;99.90;;;;;;5021936;28;20022;-60
2023/10/15 05:50:04;;;;;;;2.05;0.47;;;5.80;99.90;;;;;;5027313;28;20308;-60
2023/10/15 05:52:30;;;;;;;0.60;0.38;;;5.80;99.90;;;;;;5025245;28;20017;-61
2023/10/15 05:54:55;;;;;;;1.40;0.47;;;5.80;99.90;;;;;;5028420;28;20021;-60
2023/10/15 05:57:23;;;;;;;1.17;0.43;;;5.80;99.90;;;;;;5027775;28;20048;-61
2023/10/15 05:59:50;;;;;;;2.55;0.52;;;5.80;99.90;;;;;;5025779;28;20031;-60
2023/10/15 06:02:16;;;;;;;0.60;0.40;;;5.80;99.90;;;;;;5026929;28;20084;-59
2023/10/15 06:04:43;;;;;;;2.83;0.70;;;5.80;99.90;;;;;;5027587;28;20438;-59
2023/10/15 06:07:12;;;;;;;4.35;0.40;;;5.80;99.90;;;;;;5006118;28;20034;-59
2023/10/15 06:09:37;;;;;;;3.58;0.73;;;5.80;99.90;;;;;;5025854;28;20021;-61
2023/10/15 06:12:04;;;;;;;1.73;0.32;;;5.80;99.90;;;;;;5025099;28;20117;-60
2023/10/15 06:14:30;;;;;;;2.92;0.55;;;5.80;99.90;;;;;;5025226;28;20527;-59
2023/10/15 06:16:56;;;;;;;1.70;0.73;;;5.80;99.90;;;;;;5023342;28;20124;-60
2023/10/15 06:19:22;;;;;;;2.85;0.70;;;5.80;99.90;;;;;;5005391;28;20029;-60
2023/10/15 06:21:47;;;;;;;2.55;0.25;;;5.80;99.90;;;;;;5027526;28;20060;-61
2023/10/15 06:24:14;;;;;;;0.75;0.40;;;5.80;99.90;;;;;;5027193;28;20033;-59
2023/10/15 06:26:39;;;;;;;5.28;0.80;;;5.90;99.90;;;;;;5025659;28;20386;-59
2023/10/15 06:29:06;;;;;;;0.77;0.40;;;5.90;99.90;;;;;;5023984;28;20048;-58
2023/10/15 06:31:32;;;;;;;1.92;0.47;;;5.90;99.90;;;;;;5022402;28;20057;-60
2023/10/15 06:33:57;;;;;;;3.15;0.80;;;5.90;99.90;;;;;;5006745;28;20076;-61
2023/10/15 06:36:23;;;;;;;2.97;1.00;;;5.90;99.90;;;;;;5021734;28;20105;-60
2023/10/15 06:38:52;;;;;;;1.08;0.60;;;5.80;99.90;;;;;;5027132;28;20113;-60
2023/10/15 06:41:17;;;;;;;1.98;0.60;;;5.90;99.90;;;;;;5024847;28;20037;-61
2023/10/15 06:43:43;;;;;;;1.67;0.60;;;5.90;99.90;;;;;;5025513;28;20068;-60
2023/10/15 06:46:09;;;;;;;2.63;0.50;;;5.90;99.90;;;;;;5003691;28;20025;-61
2023/10/15 06:48:35;;;;;;;3.58;0.70;;;5.90;99.90;;;;;;5024575;28;20043;-61
2023/10/15 06:51:04;;;;;;;3.50;0.85;;;6.00;99.90;;;;;;5008333;28;20052;-60
2023/10/15 06:53:36;;;;;;;2.50;0.70;;;6.00;99.90;;;;;;5026879;28;20017;-60
2023/10/15 06:56:03;;;;;;;1.33;0.60;;;6.10;99.90;;;;;;5026877;28;20104;-60
2023/10/15 06:58:29;;;;;;;2.85;0.60;;;6.10;99.90;;;;;;5026681;28;20097;-61
2023/10/15 07:00:56;;;;;;;0.93;0.40;;;6.20;99.90;;;;;;5026693;28;20480;-59
2023/10/15 07:03:22;;;;;;;0.85;0.50;;;6.20;99.90;;;;;;5025326;28;20444;-60
2023/10/15 07:05:47;;;;;;;2.08;0.50;;;6.30;99.90;;;;;;5009301;28;20097;-59
2023/10/15 07:08:13;;;;;;;1.88;0.50;;;6.30;99.90;;;;;;5022669;28;20385;-61
2023/10/15 07:10:39;;;;;;;1.15;0.40;;;6.30;99.90;;;;;;5027238;28;20075;-58
2023/10/15 07:13:05;;;;;;;1.10;0.47;;;6.30;99.90;;;;;;5024879;28;20025;-60
2023/10/15 07:15:32;;;;;;;1.58;0.30;;;6.30;99.90;;;;;;5026618;28;20020;-60
2023/10/15 07:17:58;;;;;;;1.23;0.20;;;6.30;99.90;;;;;;5006142;28;20033;-59
2023/10/15 07:20:27;;;;;;;2.55;0.98;;;6.30;99.90;;;;;;5007048;28;20091;-59
2023/10/15 07:22:53;;;;;;;3.25;1.45;;;6.20;99.90;;;;;;5026620;28;20568;-60
2023/10/15 07:25:20;;;;;;;4.00;1.67;;;6.20;99.90;;;;;;5025888;28;20033;-60
2023/10/15 07:27:48;;;;;;;7.80;3.50;;;6.20;99.90;;;;;;5026262;28;20116;-62
2023/10/15 07:30:16;;;;;;;2.85;1.33;;;6.20;99.90;;;;;;5024436;28;20030;-57
2023/10/15 07:32:43;;;;;;;4.90;2.10;;;6.20;99.90;;;;;;5024671;28;20516;-62
2023/10/15 07:35:13;;;;;;;6.15;2.47;;;6.10;99.90;;;;;;5024692;28;20017;-59
2023/10/15 07:37:46;;;;;;;6.53;3.28;;;6.10;99.90;;;;;;5023897;28;20029;-60
2023/10/15 07:40:17;;;;;;;3.53;2.13;;;6.20;99.90;;;;;;5024443;28;20036;-62
2023/10/15 07:42:48;;;;;;;1.02;0.80;;;6.20;99.90;;;;;;5023539;28;20036;-60
2023/10/15 07:45:14;;;;;;;1.52;0.80;;;6.20;99.90;;;;;;5021628;28;20043;-60
2023/10/15 07:47:40;;;;;;;0.60;0.50;;;6.20;99.90;;;;;;5023472;28;20029;-59
2023/10/15 07:50:08;;;;;;;2.22;0.93;;;6.30;99.90;;;;;;5023236;28;20029;-61
2023/10/15 07:52:34;;;;;;;5.38;1.30;;;6.30;99.90;;;;;;5022879;28;20017;-61
2023/10/15 07:54:59;;;;;;;3.40;2.05;;;6.30;99.90;;;;;;5025593;28;20112;-61
2023/10/15 07:57:26;;;;;;;2.47;1.48;;;6.30;99.90;;;;;;5023969;28;20113;-61
2023/10/15 07:59:54;;;;;;;2.40;1.10;;;6.30;99.90;;;;;;5025264;28;20056;-62
2023/10/15 08:02:21;;;;;;;5.13;0.70;;;6.20;99.90;;;;;;5025287;28;20063;-61
2023/10/15 08:04:47;;;;;;;2.78;0.68;;;6.20;99.90;;;;;;5024335;28;20056;-62
2023/10/15 08:07:13;;;;;;;3.45;0.93;;;6.20;99.90;;;;;;5022614;28;20088;-62
2023/10/15 08:09:38;;;;;;;1.00;0.90;;;6.20;99.90;;;;;;5023669;28;20117;-59
2023/10/15 08:12:04;;;;;;;4.70;0.77;;;6.20;99.90;;;;;;5024627;28;20026;-60
2023/10/15 08:14:30;;;;;;;1.80;0.70;;;6.20;99.90;;;;;;5022760;28;20033;-61
2023/10/15 08:16:55;;;;;;;1.98;0.70;;;6.30;99.90;;;;;;5024400;28;20493;-62
2023/10/15 08:19:21;;;;;;;4.55;1.10;;;6.30;99.90;;;;;;5025038;28;20302;-58
2023/10/15 08:21:46;;;;;;;3.28;0.77;;;6.30;99.90;;;;;;5023429;28;20064;-62
2023/10/15 08:24:14;;;;;;;1.23;0.65;;;6.30;99.90;;;;;;5023337;28;20035;-60
2023/10/15 08:26:41;;;;;;;0.70;0.47;;;6.50;99.90;;;;;;5024644;28;20021;-61
2023/10/15 08:29:09;;;;;;;0.40;0.30;;;6.50;99.90;;;;;;5024017;28;20103;-61
2023/10/15 08:31:35;;;;;;;1.00;0.60;;;6.60;99.90;;;;;;5023876;28;20017;-61
2023/10/15 08:34:01;;;;;;;2.05;0.50;;;6.60;99.90;;;;;;5023237;28;20521;-61
2023/10/15 08:36:27;;;;;;;1.38;0.28;;;6.60;99.90;;;;;;5022584;28;20025;-61
2023/10/15 08:38:52;;;;;;;1.13;0.52;;;6.60;99.90;;;;;;5023000;28;20482;-61
2023/10/15 08:41:24;;;;;;;1.02;0.32;;;6.70;99.90;;;;;;5023126;28;20446;-60
2023/10/15 08:43:51;;;;;;;1.55;0.70;;;6.80;99.90;;;;;;5024369;28;20552;-61
2023/10/15 08:46:22;;;;;;;1.73;0.40;;;6.90;99.90;;;;;;5023050;28;20060;-60
2023/10/15 08:48:49;;;;;;;1.83;0.40;;;6.90;99.90;;;;;;5023654;28;20207;-61
2023/10/15 08:51:21;;;;;;;1.50;0.25;;;6.90;99.90;;;;;;5021183;28;20018;-59
2023/10/15 08:53:50;;;;;;;0.30;0.30;;;6.80;99.90;;;;;;5006770;28;20018;-59
2023/10/15 08:56:21;;;;;;;1.75;0.30;;;6.80;99.90;;;;;;5022978;28;20025;-60
2023/10/15 08:58:52;;;;;;;0.70;0.47;;;6.80;99.90;;;;;;5022817;28;20076;-59
2023/10/15 09:01:18;;;;;;;1.73;0.40;;;6.80;99.90;;;;;;5022168;28;20028;-59
2023/10/15 09:03:44;;;;;;;2.35;0.28;;;6.80;99.90;;;;;;5023550;28;20112;-58
2023/10/15 09:06:10;;;;;;;0.20;0.20;;;6.70;99.90;;;;;;5022587;28;20105;-58
2023/10/15 09:08:41;;;;;;;0.98;0.22;;;6.70;99.90;;;;;;5023409;28;20029;-57
2023/10/15 09:11:07;;;;;;;0.50;0.20;;;6.80;99.90;;;;;;5023157;28;20025;-60
2023/10/15 09:13:36;;;;;;;0.60;0.45;;;6.80;99.90;;;;;;5022071;28;20436;-59
2023/10/15 09:16:03;;;;;;;2.08;0.57;;;6.90;99.90;;;;;;5024073;28;20422;-57
2023/10/15 09:18:28;;;;;;;0.50;0.32;;;7.00;99.90;;;;;;5005588;28;20025;-58
2023/10/15 09:20:58;;;;;;;1.15;0.63;;;7.00;99.90;;;;;;5023376;28;20025;-57
2023/10/15 09:23:23;;;;;;;0.98;0.70;;;7.10;99.90;;;;;;5025787;28;20365;-60
2023/10/15 09:25:55;;;;;;;1.23;0.50;;;7.00;99.90;;;;;;5027678;28;20018;-58
2023/10/15 09:28:22;;;;;;;2.90;0.77;;;7.00;99.90;;;;;;5026445;28;20026;-59
2023/10/15 09:30:49;;;;;;;0.82;0.43;;;6.90;99.90;;;;;;5027126;28;20561;-59
2023/10/15 09:33:17;;;;;;;3.75;0.50;;;7.00;99.90;;;;;;5027020;28;20413;-60
2023/10/15 09:35:43;;;;;;;2.95;2.28;;;7.00;99.90;;;;;;5027578;28;20017;-60
2023/10/15 09:38:14;;;;;;;0.90;0.90;;;6.90;99.90;;;;;;5027849;28;20029;-59
2023/10/15 09:40:44;;;;;;;5.95;2.22;;;6.90;99.90;;;;;;5025203;28;20022;-59
2023/10/15 09:43:10;;;;;;;2.67;1.10;;;7.00;99.90;;;;;;5009283;28;20033;-61
2023/10/15 09:45:36;;;;;;;1.83;1.05;;;7.00;99.90;;;;;;5026888;28;20540;-60
2023/10/15 09:48:02;;;;;;;2.88;0.70;;;7.10;99.90;;;;;;5027221;28;20397;-58
2023/10/15 09:50:31;;;;;;;2.85;0.98;;;7.10;99.90;;;;;;5027092;28;20021;-56
2023/10/15 09:53:01;;;;;;;1.55;0.90;;;7.10;99.90;;;;;;5027566;28;20490;-60
2023/10/15 09:55:28;;;;;;;4.13;3.72;;;7.20;99.90;;;;;;5009420;28;20022;-58
2023/10/15 09:57:58;;;;;;;5.15;1.10;;;7.20;99.90;;;;;;5027159;28;20036;-56
2023/10/15 10:03:48;;;;;;;2.22;1.15;;;7.40;99.90;;;;;;4946496;28;20058;-58
2023/10/15 10:06:36;;;;;;;3.55;2.65;;;7.60;99.90;;;;;;4946524;28;20046;-59
2023/10/15 10:09:36;;;;;;;3.72;2.22;;;7.70;99.90;;;;;;4989848;28;20413;-59
2023/10/15 10:12:47;;;;;;;2.00;1.10;;;7.80;99.90;;;;;;5024716;28;20025;-57
2023/10/15 10:15:40;;;;;;;2.50;1.58;;;7.80;99.90;;;;;;5002054;28;20046;-60
2023/10/15 10:18:06;;;;;;;2.03;0.98;;;7.70;99.90;;;;;;5024935;28;20616;-57
2023/10/15 10:20:33;;;;;;;5.88;0.95;;;7.60;99.90;;;;;;5025767;28;20140;-59
2023/10/15 10:23:04;;;;;;;4.97;1.05;;;7.60;99.90;;;;;;5026708;28;20111;-59
2023/10/15 10:25:36;;;;;;;0.90;0.57;;;7.50;99.90;;;;;;5026425;28;20044;-59
2023/10/15 10:28:13;;;;;;;2.22;0.75;;;7.50;99.90;;;;;;5026803;28;20103;-58
2023/10/15 10:30:50;;;;;;;3.33;1.67;;;7.50;99.90;;;;;;5024542;28;20026;-58
2023/10/15 10:33:41;;;;;;;1.98;1.20;;;7.50;99.90;;;;;;5024669;28;20026;-60
2023/10/15 10:36:14;;;;;;;1.52;0.70;;;7.50;99.90;;;;;;5025355;28;20075;-58
2023/10/15 10:38:43;;;;;;;4.40;0.80;;;7.70;99.90;;;;;;5024802;28;20052;-58
2023/10/15 10:41:13;;;;;;;2.08;0.82;;;7.70;99.90;;;;;;5024647;28;20048;-57
2023/10/15 10:43:42;;;;;;;1.98;0.90;;;7.80;99.90;;;;;;5024455;28;20026;-58
2023/10/15 10:46:22;;;;;;;1.38;0.77;;;7.80;99.90;;;;;;5022997;28;20025;-58
2023/10/15 10:49:22;;;;;;;4.00;0.95;;;7.90;99.90;;;;;;5024881;28;20018;-59
2023/10/15 10:52:26;;;;;;;3.05;0.95;;;8.00;99.90;;;;;;5024190;28;20356;-58
2023/10/15 10:54:56;;;;;;;3.00;1.00;;;8.00;99.90;;;;;;5014033;28;20116;-59
2023/10/15 10:57:31;;;;;;;3.08;0.77;;;8.00;99.90;;;;;;5023041;28;20022;-58
2023/10/15 10:59:58;;;;;;;3.60;1.58;;;8.10;99.90;;;;;;5020328;28;20036;-59
2023/10/15 11:02:23;;;;;;;2.70;1.23;;;8.10;99.90;;;;;;5024154;28;20426;-57
2023/10/15 11:04:50;;;;;;;2.28;1.10;;;8.00;99.90;;;;;;5023178;28;20091;-58
2023/10/15 11:07:16;;;;;;;3.75;1.30;;;8.10;99.90;;;;;;5026217;28;20675;-58
2023/10/15 11:09:42;;;;;;;4.43;0.70;;;8.10;99.90;;;;;;5024776;28;20100;-60
2023/10/15 11:12:12;;;;;;;1.67;0.70;;;8.20;99.90;;;;;;5023883;28;20104;-59
2023/10/15 11:14:38;;;;;;;6.97;0.70;;;8.10;99.90;;;;;;5023211;28;20021;-58
2023/10/15 11:17:05;;;;;;;2.47;0.70;;;8.10;99.90;;;;;;5023624;28;20524;-59
2023/10/15 11:19:32;;;;;;;4.20;0.73;;;8.20;99.90;;;;;;5024372;28;20056;-59
2023/10/15 11:21:58;;;;;;;2.40;0.73;;;8.20;99.90;;;;;;5006901;28;20493;-58
2023/10/15 11:24:26;;;;;;;6.18;1.02;;;8.20;99.90;;;;;;5023108;28;20079;-59
2023/10/15 11:26:56;;;;;;;1.52;0.68;;;8.20;99.90;;;;;;5006579;28;20099;-58
2023/10/15 11:29:23;;;;;;;4.15;0.73;;;8.30;99.90;;;;;;5022596;28;20040;-58
2023/10/15 11:31:53;;;;;;;2.90;1.05;;;8.30;99.90;;;;;;5025163;28;20052;-60
2023/10/15 11:34:21;;;;;;;2.30;0.80;;;8.30;99.90;;;;;;5025445;28;20021;-58
2023/10/15 11:36:50;;;;;;;2.42;0.47;;;8.40;99.90;;;;;;5023754;28;20076;-57
2023/10/15 11:39:38;;;;;;;2.25;0.73;;;8.50;99.90;;;;;;5023861;28;20037;-59
2023/10/15 11:42:04;;;;;;;3.10;0.82;;;8.50;99.90;;;;;;5024178;28;20025;-60
2023/10/15 11:44:33;;;;;;;1.88;0.70;;;8.50;99.90;;;;;;5022332;28;20043;-60
2023/10/15 11:47:00;;;;;;;2.30;0.82;;;8.50;99.90;;;;;;5023495;28;20111;-60
2023/10/15 11:49:27;;;;;;;1.85;0.93;;;8.60;99.90;;;;;;5025023;28;20096;-60
2023/10/15 11:51:55;;;;;;;1.17;0.63;;;8.60;99.90;;;;;;5025204;28;20469;-58
2023/10/15 11:54:27;;;;;;;3.63;0.60;;;8.60;99.90;;;;;;5024526;28;20110;-59
2023/10/15 11:56:54;;;;;;;1.48;0.73;;;8.60;99.90;;;;;;5024088;28;20369;-59
2023/10/15 11:59:21;;;;;;;0.77;0.40;;;8.60;99.90;;;;;;5007942;28;20030;-60
2023/10/15 12:01:51;;;;;;;3.75;0.55;;;8.50;99.90;;;;;;5023701;28;20371;-60
2023/10/15 12:04:20;;;;;;;7.38;2.90;;;8.50;99.90;;;;;;5024973;28;20025;-60
2023/10/15 12:06:46;;;;;;;2.75;1.05;;;8.60;99.90;;;;;;5024770;28;20026;-60
2023/10/15 12:09:24;;;;;;;4.97;1.63;;;8.60;99.90;;;;;;5025549;28;20738;-60
2023/10/15 12:11:51;;;;;;;4.20;0.75;;;8.60;99.90;;;;;;5023772;28;20477;-60
2023/10/15 12:14:17;;;;;;;2.28;0.98;;;8.60;99.90;;;;;;5006740;28;20017;-59
2023/10/15 12:16:44;;;;;;;2.80;1.30;;;8.70;99.90;;;;;;5006774;28;20057;-59
2023/10/15 12:19:10;;;;;;;7.13;1.13;;;8.70;99.90;;;;;;5024766;28;20025;-61
2023/10/15 12:21:40;;;;;;;2.10;1.80;;;8.70;99.90;;;;;;5024753;28;20091;-60
2023/10/15 12:24:13;;;;;;;1.73;1.23;;;8.70;99.90;;;;;;5025327;28;20101;-60
2023/10/15 12:26:39;;;;;;;1.48;0.90;;;8.80;99.90;;;;;;5005824;28;20076;-59
2023/10/15 12:29:05;;;;;;;15.68;8.27;;;8.90;99.90;;;;;;5025400;28;20108;-60
2023/10/15 12:31:31;;;;;;;3.78;2.65;;;8.90;99.90;;;;;;5006739;28;20098;-59
2023/10/15 12:34:00;;;;;;;3.38;1.90;;;8.90;99.90;;;;;;5007359;28;20107;-59
2023/10/15 12:36:28;;;;;;;2.63;1.02;;;8.90;99.90;;;;;;5024868;28;20022;-60
2023/10/15 12:38:54;;;;;;;2.20;1.23;;;8.90;99.90;;;;;;5024311;28;20026;-60
2023/10/15 12:41:21;;;;;;;2.78;1.77;;;8.90;99.90;;;;;;5022037;28;20022;-59
2023/10/15 12:43:47;;;;;;;2.58;0.95;;;8.90;99.90;;;;;;5024547;28;20045;-60
2023/10/15 12:46:12;;;;;;;2.45;1.08;;;9.00;99.90;;;;;;5024616;28;20134;-61
2023/10/15 12:48:38;;;;;;;3.97;1.40;;;9.00;99.90;;;;;;5024732;28;20049;-61
2023/10/15 12:51:04;;;;;;;6.28;1.35;;;9.00;99.90;;;;;;5024472;28;20392;-58
2023/10/15 12:53:30;;;;;;;4.70;1.27;;;9.10;99.90;;;;;;5024177;28;20024;-62
2023/10/15 12:55:56;;;;;;;2.67;0.80;;;9.10;99.90;;;;;;5024655;28;20428;-60
2023/10/15 12:58:22;;;;;;;2.85;0.90;;;9.10;99.90;;;;;;5024342;28;20204;-62
2023/10/15 13:00:52;;;;;;;2.65;1.50;;;9.10;99.90;;;;;;5028316;28;20021;-60
2023/10/15 13:03:18;;;;;;;3.85;1.40;;;9.20;99.90;;;;;;5022352;28;20471;-61
2023/10/15 13:05:44;;;;;;;3.17;0.95;;;9.20;99.90;;;;;;5026598;28;20124;-58
2023/10/15 13:08:10;;;;;;;10.73;1.13;;;9.20;99.90;;;;;;5027122;28;20030;-62
2023/10/15 13:10:35;;;;;;;5.10;1.27;;;9.20;99.90;;;;;;5026062;28;20021;-62
2023/10/15 13:13:01;;;;;;;4.03;1.00;;;9.00;99.90;;;;;;5026408;28;20024;-59
2023/10/15 13:15:27;;;;;;;3.95;1.05;;;9.00;99.90;;;;;;5025597;28;20021;-60
2023/10/15 13:17:55;;;;;;;1.23;0.45;;;8.80;99.90;;;;;;5024111;28;20104;-60
2023/10/15 13:20:23;;;;;;;2.58;0.88;;;8.50;99.90;;;;;;5023117;28;20044;-58
2023/10/15 13:22:49;;;;;;;2.45;1.35;;;8.50;99.90;;;;;;5024883;28;20036;-61